sensor_id;sensor_type;location;lat;lon;timestamp;pressure;altitude;pressure_sealevel;temperature;humidity
13013;BME280;22580;57.670;12.006;2023-07-24T00:00:20;99697.97;;;26.94;74.10
13013;BME280;22580;57.670;12.006;2023-07-24T00:02:47;99733.78;;;26.75;75.18
13013;BME280;22580;57.670;12.006;2023-07-24T00:05:16;99669.09;;;26.39;75.50
13013;BME280;22580;57.670;12.006;2023-07-24T00:07:43;99709.00;;;26.70;75.37
13013;BME280;22580;57.670;12.006;2023-07-24T00:10:10;99681.66;;;26.99;73.81
13013;BME280;22580;57.670;12.006;2023-07-24T00:12:37;99684.09;;;26.72;74.91
13013;BME280;22580;57.670;12.006;2023-07-24T00:15:05;99680.09;;;26.91;73.63
13013;BME280;22580;57.670;12.006;2023-07-24T00:17:32;99708.31;;;27.27;73.68
13013;BME280;22580;57.670;12.006;2023-07-24T00:19:59;99693.59;;;27.45;71.99
13013;BME280;22580;57.670;12.006;2023-07-24T00:22:28;99693.88;;;27.31;73.05
13013;BME280;22580;57.670;12.006;2023-07-24T00:24:55;99673.38;;;27.22;73.19
13013;BME280;22580;57.670;12.006;2023-07-24T00:27:22;99680.44;;;27.18;73.28
13013;BME280;22580;57.670;12.006;2023-07-24T00:29:49;99673.81;;;27.31;72.97
13013;BME280;22580;57.670;12.006;2023-07-24T00:32:16;99678.94;;;27.39;72.43
13013;BME280;22580;57.670;12.006;2023-07-24T00:34:43;99673.34;;;27.34;72.63
13013;BME280;22580;57.670;12.006;2023-07-24T00:37:10;99634.75;;;27.12;73.21
13013;BME280;22580;57.670;12.006;2023-07-24T00:39:39;99641.84;;;27.36;72.29
13013;BME280;22580;57.670;12.006;2023-07-24T00:42:06;99662.00;;;27.30;72.62
13013;BME280;22580;57.670;12.006;2023-07-24T00:44:33;99671.56;;;27.56;72.24
13013;BME280;22580;57.670;12.006;2023-07-24T00:47:00;99659.19;;;27.54;72.22
13013;BME280;22580;57.670;12.006;2023-07-24T00:49:27;99650.16;;;27.41;72.91
13013;BME280;22580;57.670;12.006;2023-07-24T00:51:54;99641.44;;;27.16;73.41
13013;BME280;22580;57.670;12.006;2023-07-24T00:54:22;99598.25;;;26.83;73.75
13013;BME280;22580;57.670;12.006;2023-07-24T00:56:51;99638.09;;;27.14;73.82
13013;BME280;22580;57.670;12.006;2023-07-24T00:59:18;99645.69;;;27.24;72.96
13013;BME280;22580;57.670;12.006;2023-07-24T01:01:46;99620.41;;;27.22;73.87
13013;BME280;22580;57.670;12.006;2023-07-24T01:04:14;99613.47;;;27.31;72.77
13013;BME280;22580;57.670;12.006;2023-07-24T01:06:41;99598.81;;;27.25;72.89
13013;BME280;22580;57.670;12.006;2023-07-24T01:09:08;99633.75;;;27.30;73.61
13013;BME280;22580;57.670;12.006;2023-07-24T01:11:38;99580.44;;;26.34;76.54
13013;BME280;22580;57.670;12.006;2023-07-24T01:14:15;99592.34;;;26.51;77.20
13013;BME280;22580;57.670;12.006;2023-07-24T01:16:46;99589.47;;;26.11;78.82
13013;BME280;22580;57.670;12.006;2023-07-24T01:19:20;99541.38;;;26.15;77.43
13013;BME280;22580;57.670;12.006;2023-07-24T01:22:02;99544.69;;;26.17;78.12
13013;BME280;22580;57.670;12.006;2023-07-24T01:24:36;99572.34;;;26.39;78.51
13013;BME280;22580;57.670;12.006;2023-07-24T01:27:10;99587.47;;;26.41;78.42
13013;BME280;22580;57.670;12.006;2023-07-24T01:29:37;99589.59;;;26.16;78.90
13013;BME280;22580;57.670;12.006;2023-07-24T01:32:05;99591.75;;;26.26;78.91
13013;BME280;22580;57.670;12.006;2023-07-24T01:34:32;99575.06;;;26.27;80.18
13013;BME280;22580;57.670;12.006;2023-07-24T01:36:59;99579.22;;;26.65;78.28
13013;BME280;22580;57.670;12.006;2023-07-24T01:39:26;99576.38;;;26.88;77.63
13013;BME280;22580;57.670;12.006;2023-07-24T01:41:53;99588.97;;;27.13;76.38
13013;BME280;22580;57.670;12.006;2023-07-24T01:44:23;99587.59;;;27.27;75.49
13013;BME280;22580;57.670;12.006;2023-07-24T01:46:50;99573.16;;;26.91;76.50
13013;BME280;22580;57.670;12.006;2023-07-24T01:49:17;99545.38;;;26.99;75.71
13013;BME280;22580;57.670;12.006;2023-07-24T01:51:44;99545.00;;;26.67;77.36
13013;BME280;22580;57.670;12.006;2023-07-24T01:54:11;99546.44;;;26.70;76.96
13013;BME280;22580;57.670;12.006;2023-07-24T01:56:39;99560.75;;;26.89;76.74
13013;BME280;22580;57.670;12.006;2023-07-24T01:59:06;99531.31;;;26.56;77.42
13013;BME280;22580;57.670;12.006;2023-07-24T02:01:38;99529.53;;;26.61;77.37
13013;BME280;22580;57.670;12.006;2023-07-24T02:04:06;99537.09;;;26.83;76.64
13013;BME280;22580;57.670;12.006;2023-07-24T02:06:33;99534.63;;;26.69;77.17
13013;BME280;22580;57.670;12.006;2023-07-24T02:09:03;99533.03;;;26.85;76.75
13013;BME280;22580;57.670;12.006;2023-07-24T02:11:30;99495.56;;;25.99;79.14
13013;BME280;22580;57.670;12.006;2023-07-24T02:13:57;99550.03;;;26.59;78.09
13013;BME280;22580;57.670;12.006;2023-07-24T02:16:24;99548.97;;;26.25;80.03
13013;BME280;22580;57.670;12.006;2023-07-24T02:18:53;99514.06;;;26.55;78.30
13013;BME280;22580;57.670;12.006;2023-07-24T02:21:20;99541.78;;;26.70;78.65
13013;BME280;22580;57.670;12.006;2023-07-24T02:23:46;99528.28;;;26.81;77.55
13013;BME280;22580;57.670;12.006;2023-07-24T02:26:12;99510.44;;;26.66;77.38
13013;BME280;22580;57.670;12.006;2023-07-24T02:28:39;99511.41;;;26.60;77.73
13013;BME280;22580;57.670;12.006;2023-07-24T02:31:07;99504.31;;;26.24;78.72
13013;BME280;22580;57.670;12.006;2023-07-24T02:33:35;99510.28;;;26.33;79.37
13013;BME280;22580;57.670;12.006;2023-07-24T02:36:05;99541.41;;;26.95;77.83
13013;BME280;22580;57.670;12.006;2023-07-24T02:38:32;99538.78;;;26.72;78.58
13013;BME280;22580;57.670;12.006;2023-07-24T02:40:58;99527.78;;;27.12;77.19
13013;BME280;22580;57.670;12.006;2023-07-24T02:43:25;99522.56;;;27.27;76.71
13013;BME280;22580;57.670;12.006;2023-07-24T02:45:52;99529.19;;;27.15;76.89
13013;BME280;22580;57.670;12.006;2023-07-24T02:48:19;99492.69;;;27.14;76.47
13013;BME280;22580;57.670;12.006;2023-07-24T02:50:47;99495.19;;;26.70;77.62
13013;BME280;22580;57.670;12.006;2023-07-24T02:53:16;99508.28;;;26.97;77.49
13013;BME280;22580;57.670;12.006;2023-07-24T02:55:43;99489.50;;;26.60;78.09
13013;BME280;22580;57.670;12.006;2023-07-24T02:58:11;99494.75;;;25.98;82.44
13013;BME280;22580;57.670;12.006;2023-07-24T03:00:40;99500.19;;;23.45;92.80
13013;BME280;22580;57.670;12.006;2023-07-24T03:03:07;99504.81;;;25.51;87.12
13013;BME280;22580;57.670;12.006;2023-07-24T03:05:34;99509.34;;;26.16;84.07
13013;BME280;22580;57.670;12.006;2023-07-24T03:08:01;99510.53;;;26.71;81.22
13013;BME280;22580;57.670;12.006;2023-07-24T03:10:30;99479.78;;;26.41;81.23
13013;BME280;22580;57.670;12.006;2023-07-24T03:12:57;99487.72;;;26.83;80.16
13013;BME280;22580;57.670;12.006;2023-07-24T03:15:24;99472.09;;;27.12;78.23
13013;BME280;22580;57.670;12.006;2023-07-24T03:17:51;99476.16;;;27.26;77.62
13013;BME280;22580;57.670;12.006;2023-07-24T03:20:19;99499.84;;;27.15;78.23
13013;BME280;22580;57.670;12.006;2023-07-24T03:22:46;99500.88;;;27.42;77.41
13013;BME280;22580;57.670;12.006;2023-07-24T03:25:13;99482.41;;;26.93;78.85
13013;BME280;22580;57.670;12.006;2023-07-24T03:27:42;99464.63;;;26.78;79.21
13013;BME280;22580;57.670;12.006;2023-07-24T03:30:10;99495.75;;;27.01;79.40
13013;BME280;22580;57.670;12.006;2023-07-24T03:32:37;99493.28;;;27.16;79.09
13013;BME280;22580;57.670;12.006;2023-07-24T03:35:05;99461.75;;;27.02;78.79
13013;BME280;22580;57.670;12.006;2023-07-24T03:37:34;99470.78;;;27.31;77.84
13013;BME280;22580;57.670;12.006;2023-07-24T03:40:01;99477.75;;;27.22;78.23
13013;BME280;22580;57.670;12.006;2023-07-24T03:42:30;99503.97;;;27.46;77.60
13013;BME280;22580;57.670;12.006;2023-07-24T03:44:59;99481.00;;;26.90;79.93
13013;BME280;22580;57.670;12.006;2023-07-24T03:47:26;99494.69;;;27.02;80.79
13013;BME280;22580;57.670;12.006;2023-07-24T03:49:53;99467.75;;;26.70;81.48
13013;BME280;22580;57.670;12.006;2023-07-24T03:52:20;99469.00;;;27.08;80.27
13013;BME280;22580;57.670;12.006;2023-07-24T03:54:47;99493.47;;;27.26;80.80
13013;BME280;22580;57.670;12.006;2023-07-24T03:57:14;99492.78;;;27.19;82.00
13013;BME280;22580;57.670;12.006;2023-07-24T03:59:41;99455.94;;;26.98;81.62
13013;BME280;22580;57.670;12.006;2023-07-24T04:02:10;99486.75;;;27.51;80.23
13013;BME280;22580;57.670;12.006;2023-07-24T04:04:40;99478.09;;;27.59;80.00
13013;BME280;22580;57.670;12.006;2023-07-24T04:07:07;99434.94;;;27.21;80.28
13013;BME280;22580;57.670;12.006;2023-07-24T04:09:34;99486.94;;;27.61;80.48
13013;BME280;22580;57.670;12.006;2023-07-24T04:12:01;99476.13;;;27.71;79.96
13013;BME280;22580;57.670;12.006;2023-07-24T04:14:28;99467.13;;;27.97;78.79
13013;BME280;22580;57.670;12.006;2023-07-24T04:16:55;99431.84;;;27.34;80.37
13013;BME280;22580;57.670;12.006;2023-07-24T04:19:23;99457.56;;;27.45;81.01
13013;BME280;22580;57.670;12.006;2023-07-24T04:21:50;99464.06;;;27.72;79.83
13013;BME280;22580;57.670;12.006;2023-07-24T04:24:17;99467.97;;;27.98;79.31
13013;BME280;22580;57.670;12.006;2023-07-24T04:26:44;99447.78;;;27.87;79.15
13013;BME280;22580;57.670;12.006;2023-07-24T04:29:11;99459.25;;;28.23;77.95
13013;BME280;22580;57.670;12.006;2023-07-24T04:31:38;99411.19;;;28.03;77.19
13013;BME280;22580;57.670;12.006;2023-07-24T04:34:05;99429.75;;;27.96;78.30
13013;BME280;22580;57.670;12.006;2023-07-24T04:36:33;99444.34;;;28.19;77.86
13013;BME280;22580;57.670;12.006;2023-07-24T04:39:00;99457.97;;;28.52;77.55
13013;BME280;22580;57.670;12.006;2023-07-24T04:41:27;99455.44;;;28.72;76.14
13013;BME280;22580;57.670;12.006;2023-07-24T04:43:54;99439.38;;;28.64;76.21
13013;BME280;22580;57.670;12.006;2023-07-24T04:46:21;99438.03;;;28.67;75.91
13013;BME280;22580;57.670;12.006;2023-07-24T04:48:48;99399.38;;;28.47;75.91
13013;BME280;22580;57.670;12.006;2023-07-24T04:51:15;99437.16;;;28.83;75.50
13013;BME280;22580;57.670;12.006;2023-07-24T04:53:46;99437.47;;;28.65;76.87
13013;BME280;22580;57.670;12.006;2023-07-24T04:56:14;99442.13;;;28.64;77.25
13013;BME280;22580;57.670;12.006;2023-07-24T04:58:41;99441.56;;;28.62;77.45
13013;BME280;22580;57.670;12.006;2023-07-24T05:01:08;99441.69;;;28.99;75.99
13013;BME280;22580;57.670;12.006;2023-07-24T05:03:35;99428.47;;;28.96;75.69
13013;BME280;22580;57.670;12.006;2023-07-24T05:06:02;99426.84;;;29.00;75.87
13013;BME280;22580;57.670;12.006;2023-07-24T05:08:29;99412.94;;;29.12;75.50
13013;BME280;22580;57.670;12.006;2023-07-24T05:10:58;99393.59;;;29.02;75.28
13013;BME280;22580;57.670;12.006;2023-07-24T05:13:25;99402.97;;;29.06;75.62
13013;BME280;22580;57.670;12.006;2023-07-24T05:15:52;99413.84;;;29.23;74.76
13013;BME280;22580;57.670;12.006;2023-07-24T05:18:19;99417.81;;;29.37;74.58
13013;BME280;22580;57.670;12.006;2023-07-24T05:20:46;99409.69;;;29.20;74.94
13013;BME280;22580;57.670;12.006;2023-07-24T05:23:13;99386.63;;;28.94;76.20
13013;BME280;22580;57.670;12.006;2023-07-24T05:25:41;99371.44;;;28.87;76.59
13013;BME280;22580;57.670;12.006;2023-07-24T05:28:09;99407.25;;;29.24;76.04
13013;BME280;22580;57.670;12.006;2023-07-24T05:30:37;99397.06;;;29.24;75.90
13013;BME280;22580;57.670;12.006;2023-07-24T05:33:05;99397.94;;;28.98;77.63
13013;BME280;22580;57.670;12.006;2023-07-24T05:35:32;99420.88;;;28.82;79.27
13013;BME280;22580;57.670;12.006;2023-07-24T05:38:01;99359.06;;;28.30;80.38
13013;BME280;22580;57.670;12.006;2023-07-24T05:40:28;99374.03;;;28.71;79.58
13013;BME280;22580;57.670;12.006;2023-07-24T05:42:55;99409.50;;;28.73;80.98
13013;BME280;22580;57.670;12.006;2023-07-24T05:45:24;99407.31;;;28.75;81.38
13013;BME280;22580;57.670;12.006;2023-07-24T05:47:51;99348.25;;;28.24;82.05
13013;BME280;22580;57.670;12.006;2023-07-24T05:50:18;99402.16;;;28.52;82.46
13013;BME280;22580;57.670;12.006;2023-07-24T05:52:45;99395.00;;;28.51;83.08
13013;BME280;22580;57.670;12.006;2023-07-24T05:55:12;99392.47;;;28.44;82.59
13013;BME280;22580;57.670;12.006;2023-07-24T05:57:39;99397.56;;;28.62;82.94
13013;BME280;22580;57.670;12.006;2023-07-24T06:00:09;99396.03;;;28.71;82.12
13013;BME280;22580;57.670;12.006;2023-07-24T06:02:38;99398.75;;;28.39;83.58
13013;BME280;22580;57.670;12.006;2023-07-24T06:05:05;99362.19;;;27.95;84.67
13013;BME280;22580;57.670;12.006;2023-07-24T06:07:32;99395.09;;;28.34;84.50
13013;BME280;22580;57.670;12.006;2023-07-24T06:09:59;99357.94;;;28.53;82.13
13013;BME280;22580;57.670;12.006;2023-07-24T06:12:26;99334.75;;;28.44;82.31
13013;BME280;22580;57.670;12.006;2023-07-24T06:14:53;99371.03;;;28.46;83.53
13013;BME280;22580;57.670;12.006;2023-07-24T06:17:20;99369.78;;;28.32;84.50
13013;BME280;22580;57.670;12.006;2023-07-24T06:19:48;99384.81;;;28.78;82.64
13013;BME280;22580;57.670;12.006;2023-07-24T06:22:15;99357.25;;;28.19;84.59
13013;BME280;22580;57.670;12.006;2023-07-24T06:24:42;99351.63;;;28.09;84.54
13013;BME280;22580;57.670;12.006;2023-07-24T06:27:09;99364.34;;;28.37;84.45
13013;BME280;22580;57.670;12.006;2023-07-24T06:29:36;99346.09;;;28.53;83.59
13013;BME280;22580;57.670;12.006;2023-07-24T06:32:03;99378.88;;;28.32;84.64
13013;BME280;22580;57.670;12.006;2023-07-24T06:34:30;99344.53;;;28.35;84.69
13013;BME280;22580;57.670;12.006;2023-07-24T06:36:59;99351.69;;;28.36;84.47
13013;BME280;22580;57.670;12.006;2023-07-24T06:39:26;99383.25;;;28.60;84.70
13013;BME280;22580;57.670;12.006;2023-07-24T06:41:54;99353.19;;;28.81;83.35
13013;BME280;22580;57.670;12.006;2023-07-24T06:44:21;99350.72;;;29.43;82.30
13013;BME280;22580;57.670;12.006;2023-07-24T06:46:50;99320.16;;;29.08;82.93
13013;BME280;22580;57.670;12.006;2023-07-24T06:49:17;99341.78;;;29.31;82.98
13013;BME280;22580;57.670;12.006;2023-07-24T06:51:45;99333.19;;;29.69;81.58
13013;BME280;22580;57.670;12.006;2023-07-24T06:54:13;99353.00;;;30.24;79.25
13013;BME280;22580;57.670;12.006;2023-07-24T06:56:40;99303.69;;;29.60;80.29
13013;BME280;22580;57.670;12.006;2023-07-24T06:59:07;99340.25;;;30.03;79.21
13013;BME280;22580;57.670;12.006;2023-07-24T07:01:47;99352.44;;;30.22;79.09
13013;BME280;22580;57.670;12.006;2023-07-24T07:04:16;99349.97;;;30.20;78.27
13013;BME280;22580;57.670;12.006;2023-07-24T07:06:43;99348.59;;;30.28;77.43
13013;BME280;22580;57.670;12.006;2023-07-24T07:09:13;99322.16;;;30.52;75.96
13013;BME280;22580;57.670;12.006;2023-07-24T07:11:40;99340.72;;;29.89;78.08
13013;BME280;22580;57.670;12.006;2023-07-24T07:14:08;99333.81;;;29.29;79.06
13013;BME280;22580;57.670;12.006;2023-07-24T07:16:35;99338.00;;;28.73;81.62
13013;BME280;22580;57.670;12.006;2023-07-24T07:19:03;99308.28;;;29.02;80.58
13013;BME280;22580;57.670;12.006;2023-07-24T07:21:30;99337.03;;;29.21;80.91
13013;BME280;22580;57.670;12.006;2023-07-24T07:23:58;99327.34;;;29.56;79.59
13013;BME280;22580;57.670;12.006;2023-07-24T07:26:27;99313.91;;;29.64;79.06
13013;BME280;22580;57.670;12.006;2023-07-24T07:28:55;99325.09;;;30.00;78.10
13013;BME280;22580;57.670;12.006;2023-07-24T07:31:22;99320.56;;;29.26;80.92
13013;BME280;22580;57.670;12.006;2023-07-24T07:33:49;99327.59;;;29.49;80.39
13013;BME280;22580;57.670;12.006;2023-07-24T07:36:15;99301.06;;;29.90;78.39
13013;BME280;22580;57.670;12.006;2023-07-24T07:38:43;99321.13;;;29.81;78.69
13013;BME280;22580;57.670;12.006;2023-07-24T07:41:10;99306.84;;;29.89;77.66
13013;BME280;22580;57.670;12.006;2023-07-24T07:43:38;99314.84;;;29.90;78.01
13013;BME280;22580;57.670;12.006;2023-07-24T07:46:05;99321.88;;;30.28;76.89
13013;BME280;22580;57.670;12.006;2023-07-24T07:48:32;99308.56;;;30.00;77.66
13013;BME280;22580;57.670;12.006;2023-07-24T07:50:59;99314.41;;;30.34;76.72
13013;BME280;22580;57.670;12.006;2023-07-24T07:53:26;99312.78;;;30.48;76.34
13013;BME280;22580;57.670;12.006;2023-07-24T07:55:57;99320.75;;;30.40;76.12
13013;BME280;22580;57.670;12.006;2023-07-24T07:58:25;99317.19;;;30.44;76.15
13013;BME280;22580;57.670;12.006;2023-07-24T08:00:54;99303.69;;;30.53;75.14
13013;BME280;22580;57.670;12.006;2023-07-24T08:03:21;99318.31;;;30.53;75.13
13013;BME280;22580;57.670;12.006;2023-07-24T08:05:48;99316.34;;;30.39;75.42
13013;BME280;22580;57.670;12.006;2023-07-24T08:08:14;99317.19;;;30.29;75.64
13013;BME280;22580;57.670;12.006;2023-07-24T08:10:42;99309.28;;;29.80;76.84
13013;BME280;22580;57.670;12.006;2023-07-24T08:13:09;99292.50;;;29.87;76.35
13013;BME280;22580;57.670;12.006;2023-07-24T08:15:37;99312.72;;;30.03;75.88
13013;BME280;22580;57.670;12.006;2023-07-24T08:18:06;99307.91;;;29.83;76.02
13013;BME280;22580;57.670;12.006;2023-07-24T08:20:35;99306.75;;;29.68;76.64
13013;BME280;22580;57.670;12.006;2023-07-24T08:23:03;99298.94;;;30.03;75.30
13013;BME280;22580;57.670;12.006;2023-07-24T08:25:30;99303.56;;;29.97;75.18
13013;BME280;22580;57.670;12.006;2023-07-24T08:27:57;99301.41;;;30.04;75.14
13013;BME280;22580;57.670;12.006;2023-07-24T08:30:24;99293.47;;;30.23;74.15
13013;BME280;22580;57.670;12.006;2023-07-24T08:32:51;99316.03;;;30.05;75.65
13013;BME280;22580;57.670;12.006;2023-07-24T08:35:21;99295.41;;;30.32;74.26
13013;BME280;22580;57.670;12.006;2023-07-24T08:37:48;99304.50;;;30.23;74.46
13013;BME280;22580;57.670;12.006;2023-07-24T08:40:15;99307.22;;;30.13;74.74
13013;BME280;22580;57.670;12.006;2023-07-24T08:42:43;99299.91;;;29.76;76.12
13013;BME280;22580;57.670;12.006;2023-07-24T08:45:12;99304.28;;;29.72;76.61
13013;BME280;22580;57.670;12.006;2023-07-24T08:47:42;99303.09;;;29.53;76.66
13013;BME280;22580;57.670;12.006;2023-07-24T08:50:09;99276.97;;;29.60;75.99
13013;BME280;22580;57.670;12.006;2023-07-24T08:52:39;99287.97;;;29.45;77.08
13013;BME280;22580;57.670;12.006;2023-07-24T08:55:08;99290.19;;;29.58;76.66
13013;BME280;22580;57.670;12.006;2023-07-24T08:57:37;99273.19;;;29.77;75.70
13013;BME280;22580;57.670;12.006;2023-07-24T09:00:05;99284.84;;;29.99;75.34
13013;BME280;22580;57.670;12.006;2023-07-24T09:02:35;99279.13;;;30.16;74.57
13013;BME280;22580;57.670;12.006;2023-07-24T09:05:04;99273.06;;;30.19;74.85
13013;BME280;22580;57.670;12.006;2023-07-24T09:07:32;99267.53;;;30.04;76.56
13013;BME280;22580;57.670;12.006;2023-07-24T09:10:00;99276.38;;;30.51;74.99
13013;BME280;22580;57.670;12.006;2023-07-24T09:12:27;99277.53;;;30.71;74.59
13013;BME280;22580;57.670;12.006;2023-07-24T09:15:03;99269.13;;;29.99;76.18
13013;BME280;22580;57.670;12.006;2023-07-24T09:17:30;99269.66;;;29.91;77.14
13013;BME280;22580;57.670;12.006;2023-07-24T09:19:57;99277.28;;;29.64;78.37
13013;BME280;22580;57.670;12.006;2023-07-24T09:22:24;99274.16;;;30.13;76.98
13013;BME280;22580;57.670;12.006;2023-07-24T09:24:55;99271.38;;;30.03;77.16
13013;BME280;22580;57.670;12.006;2023-07-24T09:27:27;99267.59;;;30.85;73.58
13013;BME280;22580;57.670;12.006;2023-07-24T09:29:54;99267.84;;;30.93;72.72
13013;BME280;22580;57.670;12.006;2023-07-24T09:32:26;99260.16;;;30.65;73.28
13013;BME280;22580;57.670;12.006;2023-07-24T09:34:53;99271.72;;;30.82;72.78
13013;BME280;22580;57.670;12.006;2023-07-24T09:37:27;99266.22;;;30.62;73.83
13013;BME280;22580;57.670;12.006;2023-07-24T09:39:54;99258.16;;;30.35;74.25
13013;BME280;22580;57.670;12.006;2023-07-24T09:42:30;99266.72;;;30.44;74.46
13013;BME280;22580;57.670;12.006;2023-07-24T09:44:57;99252.66;;;30.40;74.50
13013;BME280;22580;57.670;12.006;2023-07-24T09:47:25;99270.06;;;30.30;74.77
13013;BME280;22580;57.670;12.006;2023-07-24T09:49:52;99265.63;;;30.95;73.05
13013;BME280;22580;57.670;12.006;2023-07-24T09:52:20;99266.19;;;30.52;74.41
13013;BME280;22580;57.670;12.006;2023-07-24T09:54:55;99253.75;;;30.34;74.06
13013;BME280;22580;57.670;12.006;2023-07-24T09:57:26;99225.13;;;30.30;73.42
13013;BME280;22580;57.670;12.006;2023-07-24T09:59:57;99260.38;;;30.18;74.62
13013;BME280;22580;57.670;12.006;2023-07-24T10:02:24;99268.66;;;30.18;74.89
13013;BME280;22580;57.670;12.006;2023-07-24T10:04:52;99247.97;;;30.20;73.84
13013;BME280;22580;57.670;12.006;2023-07-24T10:07:22;99273.34;;;30.27;73.42
13013;BME280;22580;57.670;12.006;2023-07-24T10:09:52;99265.63;;;30.19;74.02
13013;BME280;22580;57.670;12.006;2023-07-24T10:12:20;99254.59;;;30.14;74.65
13013;BME280;22580;57.670;12.006;2023-07-24T10:14:49;99251.53;;;30.06;74.93
13013;BME280;22580;57.670;12.006;2023-07-24T10:17:34;99235.91;;;28.00;82.27
13013;BME280;22580;57.670;12.006;2023-07-24T10:20:04;99268.16;;;28.37;85.12
13013;BME280;22580;57.670;12.006;2023-07-24T10:22:33;99255.94;;;30.02;76.53
13013;BME280;22580;57.670;12.006;2023-07-24T10:25:00;99255.13;;;30.06;75.37
13013;BME280;22580;57.670;12.006;2023-07-24T10:27:28;99252.66;;;30.15;75.95
13013;BME280;22580;57.670;12.006;2023-07-24T10:29:59;99225.56;;;29.81;76.69
13013;BME280;22580;57.670;12.006;2023-07-24T10:32:29;99252.41;;;30.31;75.24
13013;BME280;22580;57.670;12.006;2023-07-24T10:34:59;99239.97;;;30.49;74.86
13013;BME280;22580;57.670;12.006;2023-07-24T10:37:36;99233.38;;;30.45;74.53
13013;BME280;22580;57.670;12.006;2023-07-24T10:40:06;99240.84;;;30.60;74.04
13013;BME280;22580;57.670;12.006;2023-07-24T10:42:33;99244.25;;;29.74;78.01
13013;BME280;22580;57.670;12.006;2023-07-24T10:45:07;99228.78;;;29.58;78.62
13013;BME280;22580;57.670;12.006;2023-07-24T10:47:37;99230.34;;;29.39;79.67
13013;BME280;22580;57.670;12.006;2023-07-24T10:50:05;99220.59;;;29.78;77.39
13013;BME280;22580;57.670;12.006;2023-07-24T10:52:35;99210.94;;;29.81;77.51
13013;BME280;22580;57.670;12.006;2023-07-24T10:55:02;99229.88;;;29.52;78.68
13013;BME280;22580;57.670;12.006;2023-07-24T10:57:29;99229.84;;;28.94;80.92
13013;BME280;22580;57.670;12.006;2023-07-24T10:59:57;99233.63;;;29.30;79.28
13013;BME280;22580;57.670;12.006;2023-07-24T11:02:24;99241.22;;;29.13;82.43
13013;BME280;22580;57.670;12.006;2023-07-24T11:04:58;99238.75;;;29.12;83.06
13013;BME280;22580;57.670;12.006;2023-07-24T11:07:25;99213.81;;;29.33;81.82
13013;BME280;22580;57.670;12.006;2023-07-24T11:09:54;99236.88;;;29.90;80.82
13013;BME280;22580;57.670;12.006;2023-07-24T11:12:21;99216.13;;;29.62;79.38
13013;BME280;22580;57.670;12.006;2023-07-24T11:14:52;99234.47;;;30.09;77.58
13013;BME280;22580;57.670;12.006;2023-07-24T11:17:20;99205.75;;;29.94;78.05
13013;BME280;22580;57.670;12.006;2023-07-24T11:19:48;99234.19;;;30.56;76.19
13013;BME280;22580;57.670;12.006;2023-07-24T11:22:21;99232.00;;;30.83;74.79
13013;BME280;22580;57.670;12.006;2023-07-24T11:24:49;99236.13;;;26.90;90.65
13013;BME280;22580;57.670;12.006;2023-07-24T11:27:16;99231.44;;;29.38;80.83
13013;BME280;22580;57.670;12.006;2023-07-24T11:29:48;99223.28;;;29.00;83.80
13013;BME280;22580;57.670;12.006;2023-07-24T11:32:19;99237.00;;;29.48;82.35
13013;BME280;22580;57.670;12.006;2023-07-24T11:34:47;99228.25;;;28.66;85.81
13013;BME280;22580;57.670;12.006;2023-07-24T11:37:16;99210.34;;;28.59;84.43
13013;BME280;22580;57.670;12.006;2023-07-24T11:39:55;99239.28;;;28.07;84.82
13013;BME280;22580;57.670;12.006;2023-07-24T11:42:24;99242.38;;;29.22;83.07
13013;BME280;22580;57.670;12.006;2023-07-24T11:44:51;99230.28;;;27.41;88.44
13013;BME280;22580;57.670;12.006;2023-07-24T11:47:19;99220.84;;;29.77;81.46
13013;BME280;22580;57.670;12.006;2023-07-24T11:49:57;99210.66;;;29.72;80.14
13013;BME280;22580;57.670;12.006;2023-07-24T11:52:36;99211.13;;;29.49;79.87
13013;BME280;22580;57.670;12.006;2023-07-24T11:55:05;99234.94;;;29.85;79.08
13013;BME280;22580;57.670;12.006;2023-07-24T11:57:33;99213.16;;;29.79;79.44
13013;BME280;22580;57.670;12.006;2023-07-24T12:00:00;99229.16;;;29.97;79.49
13013;BME280;22580;57.670;12.006;2023-07-24T12:02:27;99238.00;;;29.26;81.21
13013;BME280;22580;57.670;12.006;2023-07-24T12:04:55;99217.81;;;29.68;80.53
13013;BME280;22580;57.670;12.006;2023-07-24T12:07:29;99235.00;;;30.06;78.68
13013;BME280;22580;57.670;12.006;2023-07-24T12:09:57;99232.25;;;30.41;76.40
13013;BME280;22580;57.670;12.006;2023-07-24T12:12:24;99230.06;;;30.28;75.60
13013;BME280;22580;57.670;12.006;2023-07-24T12:14:55;99225.09;;;30.50;75.29
13013;BME280;22580;57.670;12.006;2023-07-24T12:17:22;99230.88;;;30.49;75.46
13013;BME280;22580;57.670;12.006;2023-07-24T12:19:49;99239.34;;;29.91;76.78
13013;BME280;22580;57.670;12.006;2023-07-24T12:22:16;99202.22;;;30.04;77.26
13013;BME280;22580;57.670;12.006;2023-07-24T12:24:48;99236.13;;;30.20;75.71
13013;BME280;22580;57.670;12.006;2023-07-24T12:27:15;99225.00;;;29.79;75.45
13013;BME280;22580;57.670;12.006;2023-07-24T12:29:42;99230.50;;;29.74;75.85
13013;BME280;22580;57.670;12.006;2023-07-24T12:32:09;99236.94;;;30.10;75.50
13013;BME280;22580;57.670;12.006;2023-07-24T12:34:36;99238.63;;;30.26;74.52
13013;BME280;22580;57.670;12.006;2023-07-24T12:37:03;99219.66;;;28.95;80.41
13013;BME280;22580;57.670;12.006;2023-07-24T12:39:31;99232.69;;;29.77;75.59
13013;BME280;22580;57.670;12.006;2023-07-24T12:41:59;99236.66;;;30.07;74.24
13013;BME280;22580;57.670;12.006;2023-07-24T12:44:26;99231.97;;;30.53;73.45
13013;BME280;22580;57.670;12.006;2023-07-24T12:46:53;99235.56;;;30.03;72.62
13013;BME280;22580;57.670;12.006;2023-07-24T12:49:21;99207.47;;;30.21;73.33
13013;BME280;22580;57.670;12.006;2023-07-24T12:51:49;99227.88;;;30.30;72.07
13013;BME280;22580;57.670;12.006;2023-07-24T12:54:16;99241.94;;;30.64;71.09